WXM80 ListenWXM80 Stop

You find our weather info also at:

UK Metoffice

WeatherCloud

Weather Underground

Northeastern Weather Network

AWEKAS

Citizen Weather Observer Program (CWOP)

HAMweather, WeatherForYou, PWS Weather


Weather Underground History page Text

Daily Summary for March 2, 2017 Units:  Both    English   Metric
« Previous Day
Next Day »
Daily Weekly Monthly Yearly Custom
  High: Low: Average:
Temperature: 62.6 °F /  17 °C 35.7 °F /  2.1 °C 47.2 °F /  8.4 °C
Dew Point: 53.2 °F /  11.8 °C 17.0 °F /  -8.3 °C 28.7 °F /  -1.8 °C
Humidity: 77 % 41 % 49 %
Wind Speed: 17.3 mph /  27.8 km/h - 9.1 mph /  14.6 km/h
Wind Gust: 35.0 mph /  56.3 km/h - -
Wind:- - West
Pressure: 30.05 in /  1017.5 hPa 29.35 in /  993.8 hPa -
Precipitation: 0.00 in /  0 mm    
Historical Graphs
 
 
Tabular Data for March 2, 2017
Time Temperature Dew Point Pressure Wind Wind Speed Wind Gust Humidity Rainfall Rate (Hourly)
00:01 59.1 °F /  15.1 °C 51.9 °F /  11.1 °C 29.36 in /  994.1 hPa SSW 5.3 mph /  8.5 km/h 11.5 mph /  18.5 km/h 77 % 0.00 in /  0 mm
00:07 59.1 °F /  15.1 °C 51.9 °F /  11.1 °C 29.36 in /  994.1 hPa SW 4.3 mph /  6.9 km/h 15.0 mph /  24.1 km/h 77 % 0.00 in /  0 mm
00:12 59.1 °F /  15.1 °C 51.9 °F /  11.1 °C 29.37 in /  994.5 hPa SSW 3.5 mph /  5.6 km/h 8.1 mph /  13 km/h 77 % 0.00 in /  0 mm
00:17 59.1 °F /  15.1 °C 51.9 °F /  11.1 °C 29.37 in /  994.5 hPa West 4.9 mph /  7.9 km/h 9.2 mph /  14.8 km/h 77 % 0.00 in /  0 mm
00:22 59.1 °F /  15.1 °C 51.9 °F /  11.1 °C 29.36 in /  994.1 hPa SW 7.9 mph /  12.7 km/h 10.4 mph /  16.7 km/h 77 % 0.00 in /  0 mm
00:27 59.2 °F /  15.1 °C 52.0 °F /  11.1 °C 29.36 in /  994.1 hPa SSW 7.2 mph /  11.6 km/h 11.5 mph /  18.5 km/h 77 % 0.00 in /  0 mm
00:32 59.3 °F /  15.2 °C 52.1 °F /  11.2 °C 29.36 in /  994.1 hPa SW 7.3 mph /  11.7 km/h 8.0 mph /  12.9 km/h 77 % 0.00 in /  0 mm
00:37 59.4 °F /  15.2 °C 52.2 °F /  11.2 °C 29.36 in /  994.1 hPa SSW 5.5 mph /  8.9 km/h 11.5 mph /  18.5 km/h 77 % 0.00 in /  0 mm
00:42 59.6 °F /  15.3 °C 52.4 °F /  11.3 °C 29.37 in /  994.5 hPa WSW 8.6 mph /  13.8 km/h 13.0 mph /  20.9 km/h 77 % 0.00 in /  0 mm
00:43 59.7 °F /  15.4 °C 52.4 °F /  11.3 °C 29.37 in /  994.5 hPa SW 9.0 mph /  14.5 km/h 14.0 mph /  22.5 km/h 77 % 0.00 in /  0 mm
00:48 60.0 °F /  15.6 °C 52.8 °F /  11.6 °C 29.37 in /  994.5 hPa SW 7.0 mph /  11.3 km/h 14.0 mph /  22.5 km/h 77 % 0.00 in /  0 mm
00:53 60.3 °F /  15.7 °C 53.1 °F /  11.7 °C 29.37 in /  994.5 hPa SW 6.0 mph /  9.7 km/h 18.0 mph /  29 km/h 77 % 0.00 in /  0 mm
00:58 60.7 °F /  15.9 °C 53.1 °F /  11.7 °C 29.36 in /  994.1 hPa SW 7.5 mph /  12.1 km/h 11.0 mph /  17.7 km/h 76 % 0.00 in /  0 mm
01:03 61.0 °F /  16.1 °C 53.0 °F /  11.7 °C 29.36 in /  994.1 hPa WSW 5.9 mph /  9.5 km/h 9.2 mph /  14.8 km/h 75 % 0.00 in /  0 mm
01:08 61.3 °F /  16.3 °C 52.9 °F /  11.6 °C 29.36 in /  994.1 hPa WSW 8.2 mph /  13.2 km/h 15.0 mph /  24.1 km/h 74 % 0.00 in /  0 mm
01:13 61.6 °F /  16.4 °C 53.2 °F /  11.8 °C 29.36 in /  994.1 hPa South 8.2 mph /  13.2 km/h 12.0 mph /  19.3 km/h 74 % 0.00 in /  0 mm
01:18 61.9 °F /  16.6 °C 53.1 °F /  11.7 °C 29.36 in /  994.1 hPa WSW 5.9 mph /  9.5 km/h 11.5 mph /  18.5 km/h 73 % 0.00 in /  0 mm
01:23 62.1 °F /  16.7 °C 53.0 °F /  11.7 °C 29.35 in /  993.8 hPa SW 6.7 mph /  10.8 km/h 13.8 mph /  22.2 km/h 72 % 0.00 in /  0 mm
01:29 62.1 °F /  16.7 °C 53.0 °F /  11.7 °C 29.36 in /  994.1 hPa SW 5.9 mph /  9.5 km/h 12.7 mph /  20.4 km/h 72 % 0.00 in /  0 mm
01:34 62.2 °F /  16.8 °C 52.7 °F /  11.5 °C 29.36 in /  994.1 hPa SW 5.8 mph /  9.3 km/h 16.1 mph /  25.9 km/h 71 % 0.00 in /  0 mm
01:39 62.2 °F /  16.8 °C 52.7 °F /  11.5 °C 29.35 in /  993.8 hPa SW 8.5 mph /  13.7 km/h 13.8 mph /  22.2 km/h 71 % 0.00 in /  0 mm
01:44 62.3 °F /  16.8 °C 52.8 °F /  11.6 °C 29.35 in /  993.8 hPa SSW 9.5 mph /  15.3 km/h 17.3 mph /  27.8 km/h 71 % 0.00 in /  0 mm
01:49 62.4 °F /  16.9 °C 52.9 °F /  11.6 °C 29.35 in /  993.8 hPa WSW 5.5 mph /  8.9 km/h 15.0 mph /  24.1 km/h 71 % 0.00 in /  0 mm
01:54 62.5 °F /  16.9 °C 52.6 °F /  11.4 °C 29.35 in /  993.8 hPa West 10.0 mph /  16.1 km/h 13.8 mph /  22.2 km/h 70 % 0.00 in /  0 mm
01:59 62.6 °F /  17 °C 52.7 °F /  11.5 °C 29.36 in /  994.1 hPa WNW 6.7 mph /  10.8 km/h 11.5 mph /  18.5 km/h 70 % 0.00 in /  0 mm
02:04 62.4 °F /  16.9 °C 50.9 °F /  10.5 °C 29.37 in /  994.5 hPa West 8.9 mph /  14.3 km/h 19.6 mph /  31.5 km/h 66 % 0.00 in /  0 mm
02:09 61.9 °F /  16.6 °C 50.4 °F /  10.2 °C 29.36 in /  994.1 hPa West 13.4 mph /  21.6 km/h 24.2 mph /  38.9 km/h 66 % 0.00 in /  0 mm
02:14 61.2 °F /  16.2 °C 50.2 °F /  10.1 °C 29.36 in /  994.1 hPa West 4.8 mph /  7.7 km/h 15.0 mph /  24.1 km/h 67 % 0.00 in /  0 mm
02:19 60.6 °F /  15.9 °C 50.0 °F /  10 °C 29.36 in /  994.1 hPa WNW 5.6 mph /  9 km/h 10.4 mph /  16.7 km/h 68 % 0.00 in /  0 mm
02:24 60.0 °F /  15.6 °C 50.2 °F /  10.1 °C 29.36 in /  994.1 hPa West 7.1 mph /  11.4 km/h 12.7 mph /  20.4 km/h 70 % 0.00 in /  0 mm
02:30 59.6 °F /  15.3 °C 50.2 °F /  10.1 °C 29.36 in /  994.1 hPa SW 6.8 mph /  10.9 km/h 11.5 mph /  18.5 km/h 71 % 0.00 in /  0 mm
02:35 59.3 °F /  15.2 °C 50.3 °F /  10.2 °C 29.36 in /  994.1 hPa WNW 7.3 mph /  11.7 km/h 9.2 mph /  14.8 km/h 72 % 0.00 in /  0 mm
02:40 58.9 °F /  14.9 °C 49.9 °F /  9.9 °C 29.36 in /  994.1 hPa SSW 10.7 mph /  17.2 km/h 13.8 mph /  22.2 km/h 72 % 0.00 in /  0 mm
02:45 58.7 °F /  14.8 °C 49.7 °F /  9.8 °C 29.36 in /  994.1 hPa NW 5.9 mph /  9.5 km/h 9.2 mph /  14.8 km/h 72 % 0.00 in /  0 mm
02:50 58.5 °F /  14.7 °C 49.1 °F /  9.5 °C 29.36 in /  994.1 hPa NW 6.9 mph /  11.1 km/h 12.7 mph /  20.4 km/h 71 % 0.00 in /  0 mm
02:55 58.4 °F /  14.7 °C 49.0 °F /  9.4 °C 29.36 in /  994.1 hPa WSW 5.3 mph /  8.5 km/h 15.0 mph /  24.1 km/h 71 % 0.00 in /  0 mm
03:00 58.3 °F /  14.6 °C 48.6 °F /  9.2 °C 29.37 in /  994.5 hPa West 7.0 mph /  11.3 km/h 16.1 mph /  25.9 km/h 70 % 0.00 in /  0 mm
03:05 58.2 °F /  14.6 °C 48.1 °F /  8.9 °C 29.36 in /  994.1 hPa SW 5.6 mph /  9 km/h 11.5 mph /  18.5 km/h 69 % 0.00 in /  0 mm
03:10 58.1 °F /  14.5 °C 48.0 °F /  8.9 °C 29.36 in /  994.1 hPa SSW 8.4 mph /  13.5 km/h 18.4 mph /  29.6 km/h 69 % 0.00 in /  0 mm
03:15 57.9 °F /  14.4 °C 47.8 °F /  8.8 °C 29.36 in /  994.1 hPa SW 5.0 mph /  8 km/h 11.5 mph /  18.5 km/h 69 % 0.00 in /  0 mm
03:20 57.8 °F /  14.3 °C 45.7 °F /  7.6 °C 29.37 in /  994.5 hPa West 7.5 mph /  12.1 km/h 16.0 mph /  25.7 km/h 64 % 0.00 in /  0 mm
03:25 57.8 °F /  14.3 °C 43.6 °F /  6.4 °C 29.37 in /  994.5 hPa SSW 13.5 mph /  21.7 km/h 23.0 mph /  37 km/h 59 % 0.00 in /  0 mm
03:30 57.8 °F /  14.3 °C 42.2 °F /  5.7 °C 29.37 in /  994.5 hPa WSW 10.5 mph /  16.9 km/h 20.7 mph /  33.3 km/h 56 % 0.00 in /  0 mm
03:41 57.5 °F /  14.2 °C 42.8 °F /  6 °C 29.38 in /  994.8 hPa West 7.1 mph /  11.4 km/h 11.5 mph /  18.5 km/h 58 % 0.00 in /  0 mm
03:46 57.3 °F /  14.1 °C 43.5 °F /  6.4 °C 29.38 in /  994.8 hPa WSW 11.5 mph /  18.5 km/h 19.6 mph /  31.5 km/h 60 % 0.00 in /  0 mm
03:51 57.1 °F /  13.9 °C 43.3 °F /  6.3 °C 29.39 in /  995.1 hPa West 7.2 mph /  11.6 km/h 15.0 mph /  24.1 km/h 60 % 0.00 in /  0 mm
03:56 56.8 °F /  13.8 °C 42.2 °F /  5.7 °C 29.39 in /  995.1 hPa WNW 11.1 mph /  17.9 km/h 15.0 mph /  24.1 km/h 58 % 0.00 in /  0 mm
04:01 56.4 °F /  13.6 °C 41.3 °F /  5.2 °C 29.39 in /  995.1 hPa WNW 7.8 mph /  12.6 km/h 9.2 mph /  14.8 km/h 57 % 0.00 in /  0 mm
04:06 56.0 °F /  13.3 °C 41.0 °F /  5 °C 29.40 in /  995.5 hPa West 7.2 mph /  11.6 km/h 16.1 mph /  25.9 km/h 57 % 0.00 in /  0 mm
04:11 55.5 °F /  13.1 °C 39.6 °F /  4.2 °C 29.41 in /  995.8 hPa West 8.7 mph /  14 km/h 17.0 mph /  27.4 km/h 55 % 0.00 in /  0 mm
04:13 55.4 °F /  13 °C 39.0 °F /  3.9 °C 29.41 in /  995.8 hPa WNW 7.0 mph /  11.3 km/h 18.4 mph /  29.6 km/h 54 % 0.00 in /  0 mm
04:18 54.9 °F /  12.7 °C 36.1 °F /  2.3 °C 29.41 in /  995.8 hPa WSW 7.8 mph /  12.6 km/h 17.3 mph /  27.8 km/h 49 % 0.00 in /  0 mm
04:23 54.6 °F /  12.6 °C 35.3 °F /  1.8 °C 29.41 in /  995.8 hPa WSW 13.0 mph /  20.9 km/h 23.0 mph /  37 km/h 48 % 0.00 in /  0 mm
04:28 54.2 °F /  12.3 °C 34.9 °F /  1.6 °C 29.41 in /  995.8 hPa West 12.0 mph /  19.3 km/h 21.0 mph /  33.8 km/h 48 % 0.00 in /  0 mm
04:33 53.9 °F /  12.2 °C 33.6 °F /  0.9 °C 29.42 in /  996.2 hPa West 12.0 mph /  19.3 km/h 24.0 mph /  38.6 km/h 46 % 0.00 in /  0 mm
04:38 53.5 °F /  11.9 °C 33.8 °F /  1 °C 29.42 in /  996.2 hPa WSW 12.0 mph /  19.3 km/h 22.0 mph /  35.4 km/h 47 % 0.00 in /  0 mm
04:43 53.2 °F /  11.8 °C 32.9 °F /  0.5 °C 29.42 in /  996.2 hPa West 15.0 mph /  24.1 km/h 26.0 mph /  41.8 km/h 46 % 0.00 in /  0 mm
04:48 53.1 °F /  11.7 °C 32.8 °F /  0.4 °C 29.43 in /  996.5 hPa West 10.0 mph /  16.1 km/h 31.0 mph /  49.9 km/h 46 % 0.00 in /  0 mm
04:53 52.8 °F /  11.6 °C 32.6 °F /  0.3 °C 29.43 in /  996.5 hPa West 16.0 mph /  25.7 km/h 35.0 mph /  56.3 km/h 46 % 0.00 in /  0 mm
04:58 52.5 °F /  11.4 °C 33.9 °F /  1.1 °C 29.44 in /  996.8 hPa WNW 10.1 mph /  16.3 km/h 15.0 mph /  24.1 km/h 49 % 0.00 in /  0 mm
05:03 52.0 °F /  11.1 °C 33.9 °F /  1.1 °C 29.44 in /  996.8 hPa West 8.4 mph /  13.5 km/h 16.1 mph /  25.9 km/h 50 % 0.00 in /  0 mm
05:08 51.5 °F /  10.8 °C 33.0 °F /  0.6 °C 29.44 in /  996.8 hPa West 8.9 mph /  14.3 km/h 18.4 mph /  29.6 km/h 49 % 0.00 in /  0 mm
05:13 51.1 °F /  10.6 °C 31.6 °F /  -0.2 °C 29.43 in /  996.5 hPa WSW 10.7 mph /  17.2 km/h 19.6 mph /  31.5 km/h 47 % 0.00 in /  0 mm
05:18 50.9 °F /  10.5 °C 30.8 °F /  -0.7 °C 29.44 in /  996.8 hPa SW 15.9 mph /  25.6 km/h 26.5 mph /  42.6 km/h 46 % 0.00 in /  0 mm
05:23 50.7 °F /  10.4 °C 30.1 °F /  -1.1 °C 29.44 in /  996.8 hPa West 13.3 mph /  21.4 km/h 27.0 mph /  43.5 km/h 45 % 0.00 in /  0 mm
05:29 50.6 °F /  10.3 °C 30.6 °F /  -0.8 °C 29.44 in /  996.8 hPa West 9.8 mph /  15.8 km/h 17.3 mph /  27.8 km/h 46 % 0.00 in /  0 mm
05:34 50.5 °F /  10.3 °C 30.5 °F /  -0.8 °C 29.44 in /  996.8 hPa WNW 7.3 mph /  11.7 km/h 12.7 mph /  20.4 km/h 46 % 0.00 in /  0 mm
05:39 50.4 °F /  10.2 °C 31.9 °F /  -0.1 °C 29.45 in /  997.2 hPa WSW 9.6 mph /  15.4 km/h 18.4 mph /  29.6 km/h 49 % 0.00 in /  0 mm
05:44 50.1 °F /  10.1 °C 32.7 °F /  0.4 °C 29.45 in /  997.2 hPa SW 10.5 mph /  16.9 km/h 13.8 mph /  22.2 km/h 51 % 0.00 in /  0 mm
05:49 50.0 °F /  10 °C 32.1 °F /  0.1 °C 29.45 in /  997.2 hPa West 12.6 mph /  20.3 km/h 18.4 mph /  29.6 km/h 50 % 0.00 in /  0 mm
05:54 49.9 °F /  9.9 °C 32.0 °F /  0 °C 29.46 in /  997.5 hPa SW 6.4 mph /  10.3 km/h 11.5 mph /  18.5 km/h 50 % 0.00 in /  0 mm
05:59 49.7 °F /  9.8 °C 31.3 °F /  -0.4 °C 29.47 in /  997.9 hPa West 15.0 mph /  24.1 km/h 30.0 mph /  48.3 km/h 49 % 0.00 in /  0 mm
06:04 49.7 °F /  9.8 °C 30.8 °F /  -0.7 °C 29.46 in /  997.5 hPa WSW 11.3 mph /  18.2 km/h 20.7 mph /  33.3 km/h 48 % 0.00 in /  0 mm
06:09 49.7 °F /  9.8 °C 30.3 °F /  -0.9 °C 29.47 in /  997.9 hPa SW 9.6 mph /  15.4 km/h 18.0 mph /  29 km/h 47 % 0.00 in /  0 mm
06:14 49.6 °F /  9.8 °C 30.2 °F /  -1 °C 29.47 in /  997.9 hPa WSW 7.4 mph /  11.9 km/h 14.0 mph /  22.5 km/h 47 % 0.00 in /  0 mm
06:19 49.5 °F /  9.7 °C 30.6 °F /  -0.8 °C 29.47 in /  997.9 hPa WNW 9.3 mph /  15 km/h 16.1 mph /  25.9 km/h 48 % 0.00 in /  0 mm
06:24 49.3 °F /  9.6 °C 29.9 °F /  -1.2 °C 29.47 in /  997.9 hPa WNW 9.4 mph /  15.1 km/h 19.6 mph /  31.5 km/h 47 % 0.00 in /  0 mm
06:29 49.1 °F /  9.5 °C 30.2 °F /  -1 °C 29.47 in /  997.9 hPa NW 6.8 mph /  10.9 km/h 17.3 mph /  27.8 km/h 48 % 0.00 in /  0 mm
06:35 49.0 °F /  9.4 °C 30.1 °F /  -1.1 °C 29.48 in /  998.2 hPa WNW 7.0 mph /  11.3 km/h 18.4 mph /  29.6 km/h 48 % 0.00 in /  0 mm
06:40 48.8 °F /  9.3 °C 30.5 °F /  -0.8 °C 29.48 in /  998.2 hPa WSW 8.1 mph /  13 km/h 16.0 mph /  25.7 km/h 49 % 0.00 in /  0 mm
06:45 48.7 °F /  9.3 °C 30.4 °F /  -0.9 °C 29.48 in /  998.2 hPa WSW 8.9 mph /  14.3 km/h 20.7 mph /  33.3 km/h 49 % 0.00 in /  0 mm
06:50 48.6 °F /  9.2 °C 30.8 °F /  -0.7 °C 29.48 in /  998.2 hPa West 15.2 mph /  24.5 km/h 16.1 mph /  25.9 km/h 50 % 0.00 in /  0 mm
06:55 48.7 °F /  9.3 °C 29.9 °F /  -1.2 °C 29.49 in /  998.5 hPa WSW 9.8 mph /  15.8 km/h 25.3 mph /  40.7 km/h 48 % 0.00 in /  0 mm
07:00 48.8 °F /  9.3 °C 30.5 °F /  -0.8 °C 29.49 in /  998.5 hPa SW 15.1 mph /  24.3 km/h 24.2 mph /  38.9 km/h 49 % 0.00 in /  0 mm
07:05 48.9 °F /  9.4 °C 30.1 °F /  -1.1 °C 29.49 in /  998.5 hPa West 10.5 mph /  16.9 km/h 27.6 mph /  44.4 km/h 48 % 0.00 in /  0 mm
07:10 48.9 °F /  9.4 °C 30.6 °F /  -0.8 °C 29.49 in /  998.5 hPa SW 13.0 mph /  20.9 km/h 26.5 mph /  42.6 km/h 49 % 0.00 in /  0 mm
07:15 49.0 °F /  9.4 °C 31.2 °F /  -0.4 °C 29.49 in /  998.5 hPa WSW 5.4 mph /  8.7 km/h 25.3 mph /  40.7 km/h 50 % 0.00 in /  0 mm
07:20 49.0 °F /  9.4 °C 30.7 °F /  -0.7 °C 29.49 in /  998.5 hPa West 11.6 mph /  18.7 km/h 18.4 mph /  29.6 km/h 49 % 0.00 in /  0 mm
07:25 49.0 °F /  9.4 °C 30.7 °F /  -0.7 °C 29.50 in /  998.9 hPa WNW 10.7 mph /  17.2 km/h 18.4 mph /  29.6 km/h 49 % 0.00 in /  0 mm
07:30 49.0 °F /  9.4 °C 30.1 °F /  -1.1 °C 29.50 in /  998.9 hPa WSW 11.7 mph /  18.8 km/h 19.6 mph /  31.5 km/h 48 % 0.00 in /  0 mm
07:35 49.0 °F /  9.4 °C 30.1 °F /  -1.1 °C 29.51 in /  999.2 hPa SW 10.8 mph /  17.4 km/h 18.4 mph /  29.6 km/h 48 % 0.00 in /  0 mm
07:41 49.0 °F /  9.4 °C 30.1 °F /  -1.1 °C 29.51 in /  999.2 hPa WNW 13.9 mph /  22.4 km/h 18.4 mph /  29.6 km/h 48 % 0.00 in /  0 mm
07:46 49.1 °F /  9.5 °C 30.2 °F /  -1 °C 29.52 in /  999.5 hPa SW 12.4 mph /  20 km/h 18.0 mph /  29 km/h 48 % 0.00 in /  0 mm
07:51 49.1 °F /  9.5 °C 30.2 °F /  -1 °C 29.52 in /  999.5 hPa WNW 13.3 mph /  21.4 km/h 25.3 mph /  40.7 km/h 48 % 0.00 in /  0 mm
07:56 49.2 °F /  9.6 °C 30.3 °F /  -0.9 °C 29.53 in /  999.9 hPa WSW 15.4 mph /  24.8 km/h 21.9 mph /  35.2 km/h 48 % 0.00 in /  0 mm
08:01 48.8 °F /  9.3 °C 30.0 °F /  -1.1 °C 29.54 in /  1000.2 hPa WSW 16.2 mph /  26.1 km/h 26.5 mph /  42.6 km/h 48 % 0.00 in /  0 mm
08:06 48.5 °F /  9.2 °C 30.2 °F /  -1 °C 29.54 in /  1000.2 hPa WSW 15.1 mph /  24.3 km/h 26.5 mph /  42.6 km/h 49 % 0.00 in /  0 mm
08:11 48.3 °F /  9.1 °C 29.0 °F /  -1.7 °C 29.54 in /  1000.2 hPa SW 12.5 mph /  20.1 km/h 24.2 mph /  38.9 km/h 47 % 0.00 in /  0 mm
08:16 48.3 °F /  9.1 °C 29.5 °F /  -1.4 °C 29.55 in /  1000.6 hPa SW 10.0 mph /  16.1 km/h 20.7 mph /  33.3 km/h 48 % 0.00 in /  0 mm
08:19 48.2 °F /  9 °C 28.9 °F /  -1.7 °C 29.55 in /  1000.6 hPa SW 13.1 mph /  21.1 km/h 18.0 mph /  29 km/h 47 % 0.00 in /  0 mm
08:24 48.2 °F /  9 °C 28.9 °F /  -1.7 °C 29.55 in /  1000.6 hPa West 9.4 mph /  15.1 km/h 19.6 mph /  31.5 km/h 47 % 0.00 in /  0 mm
08:29 48.2 °F /  9 °C 29.4 °F /  -1.4 °C 29.55 in /  1000.6 hPa WNW 8.7 mph /  14 km/h 13.8 mph /  22.2 km/h 48 % 0.00 in /  0 mm
08:34 48.1 °F /  8.9 °C 29.3 °F /  -1.5 °C 29.55 in /  1000.6 hPa SSW 17.3 mph /  27.8 km/h 28.8 mph /  46.3 km/h 48 % 0.00 in /  0 mm
08:39 47.7 °F /  8.7 °C 27.9 °F /  -2.3 °C 29.56 in /  1000.9 hPa West 10.6 mph /  17.1 km/h 25.3 mph /  40.7 km/h 46 % 0.00 in /  0 mm
08:44 47.4 °F /  8.6 °C 27.6 °F /  -2.4 °C 29.56 in /  1000.9 hPa WNW 12.1 mph /  19.5 km/h 26.5 mph /  42.6 km/h 46 % 0.00 in /  0 mm
08:49 47.4 °F /  8.6 °C 28.7 °F /  -1.8 °C 29.57 in /  1001.2 hPa WSW 9.9 mph /  15.9 km/h 18.4 mph /  29.6 km/h 48 % 0.00 in /  0 mm
08:54 47.3 °F /  8.5 °C 27.5 °F /  -2.5 °C 29.57 in /  1001.2 hPa SSW 10.9 mph /  17.5 km/h 20.7 mph /  33.3 km/h 46 % 0.00 in /  0 mm
08:59 47.4 °F /  8.6 °C 28.2 °F /  -2.1 °C 29.57 in /  1001.2 hPa WNW 12.0 mph /  19.3 km/h 18.4 mph /  29.6 km/h 47 % 0.00 in /  0 mm
09:04 47.4 °F /  8.6 °C 27.6 °F /  -2.4 °C 29.58 in /  1001.6 hPa WNW 14.3 mph /  23 km/h 23.0 mph /  37 km/h 46 % 0.00 in /  0 mm
09:09 47.3 °F /  8.5 °C 27.5 °F /  -2.5 °C 29.58 in /  1001.6 hPa WSW 10.1 mph /  16.3 km/h 20.7 mph /  33.3 km/h 46 % 0.00 in /  0 mm
09:14 47.3 °F /  8.5 °C 27.0 °F /  -2.8 °C 29.58 in /  1001.6 hPa WSW 15.4 mph /  24.8 km/h 26.5 mph /  42.6 km/h 45 % 0.00 in /  0 mm
09:20 47.3 °F /  8.5 °C 27.0 °F /  -2.8 °C 29.59 in /  1001.9 hPa West 12.2 mph /  19.6 km/h 21.9 mph /  35.2 km/h 45 % 0.00 in /  0 mm
09:25 47.5 °F /  8.6 °C 27.2 °F /  -2.7 °C 29.60 in /  1002.3 hPa West 12.9 mph /  20.8 km/h 19.6 mph /  31.5 km/h 45 % 0.00 in /  0 mm
09:30 47.6 °F /  8.7 °C 26.7 °F /  -2.9 °C 29.60 in /  1002.3 hPa WNW 9.6 mph /  15.4 km/h 20.7 mph /  33.3 km/h 44 % 0.00 in /  0 mm
09:35 47.6 °F /  8.7 °C 26.2 °F /  -3.2 °C 29.60 in /  1002.3 hPa WNW 11.0 mph /  17.7 km/h 25.0 mph /  40.2 km/h 43 % 0.00 in /  0 mm
09:40 47.5 °F /  8.6 °C 25.5 °F /  -3.6 °C 29.60 in /  1002.3 hPa NNW 13.7 mph /  22 km/h 24.2 mph /  38.9 km/h 42 % 0.00 in /  0 mm
09:45 47.4 °F /  8.6 °C 26.0 °F /  -3.3 °C 29.61 in /  1002.6 hPa NNW 11.5 mph /  18.5 km/h 18.4 mph /  29.6 km/h 43 % 0.00 in /  0 mm
09:50 47.3 °F /  8.5 °C 27.0 °F /  -2.8 °C 29.61 in /  1002.6 hPa WNW 9.6 mph /  15.4 km/h 20.7 mph /  33.3 km/h 45 % 0.00 in /  0 mm
09:55 47.4 °F /  8.6 °C 26.6 °F /  -3 °C 29.61 in /  1002.6 hPa WNW 9.6 mph /  15.4 km/h 18.4 mph /  29.6 km/h 44 % 0.00 in /  0 mm
10:00 47.7 °F /  8.7 °C 26.3 °F /  -3.2 °C 29.62 in /  1002.9 hPa West 9.1 mph /  14.6 km/h 16.1 mph /  25.9 km/h 43 % 0.00 in /  0 mm
10:05 47.6 °F /  8.7 °C 26.2 °F /  -3.2 °C 29.62 in /  1002.9 hPa WNW 9.0 mph /  14.5 km/h 16.1 mph /  25.9 km/h 43 % 0.00 in /  0 mm
10:11 47.3 °F /  8.5 °C 25.3 °F /  -3.7 °C 29.63 in /  1003.3 hPa West 14.0 mph /  22.5 km/h 31.1 mph /  50 km/h 42 % 0.00 in /  0 mm
10:16 47.2 °F /  8.4 °C 25.3 °F /  -3.7 °C 29.64 in /  1003.6 hPa SW 16.3 mph /  26.2 km/h 26.5 mph /  42.6 km/h 42 % 0.00 in /  0 mm
10:21 47.1 °F /  8.4 °C 24.6 °F /  -4.1 °C 29.64 in /  1003.6 hPa WNW 9.2 mph /  14.8 km/h 21.0 mph /  33.8 km/h 41 % 0.00 in /  0 mm
10:26 46.9 °F /  8.3 °C 24.4 °F /  -4.2 °C 29.64 in /  1003.6 hPa WNW 16.7 mph /  26.9 km/h 32.2 mph /  51.8 km/h 41 % 0.00 in /  0 mm
10:31 46.8 °F /  8.2 °C 24.9 °F /  -3.9 °C 29.65 in /  1003.9 hPa WNW 12.1 mph /  19.5 km/h 21.9 mph /  35.2 km/h 42 % 0.00 in /  0 mm
10:36 46.7 °F /  8.2 °C 24.8 °F /  -4 °C 29.65 in /  1003.9 hPa West 11.6 mph /  18.7 km/h 31.1 mph /  50 km/h 42 % 0.00 in /  0 mm
10:41 46.7 °F /  8.2 °C 25.4 °F /  -3.7 °C 29.65 in /  1003.9 hPa SW 8.9 mph /  14.3 km/h 25.3 mph /  40.7 km/h 43 % 0.00 in /  0 mm
10:46 46.8 °F /  8.2 °C 24.9 °F /  -3.9 °C 29.65 in /  1003.9 hPa WNW 9.8 mph /  15.8 km/h 24.2 mph /  38.9 km/h 42 % 0.00 in /  0 mm
10:51 46.9 °F /  8.3 °C 25.5 °F /  -3.6 °C 29.65 in /  1003.9 hPa West 11.0 mph /  17.7 km/h 26.5 mph /  42.6 km/h 43 % 0.00 in /  0 mm
10:56 46.9 °F /  8.3 °C 25.0 °F /  -3.9 °C 29.66 in /  1004.3 hPa West 10.5 mph /  16.9 km/h 19.6 mph /  31.5 km/h 42 % 0.00 in /  0 mm
11:01 47.1 °F /  8.4 °C 26.3 °F /  -3.2 °C 29.66 in /  1004.3 hPa NW 8.9 mph /  14.3 km/h 20.7 mph /  33.3 km/h 44 % 0.00 in /  0 mm
11:06 47.0 °F /  8.3 °C 24.5 °F /  -4.2 °C 29.67 in /  1004.6 hPa WNW 10.8 mph /  17.4 km/h 15.0 mph /  24.1 km/h 41 % 0.00 in /  0 mm
11:11 47.0 °F /  8.3 °C 25.1 °F /  -3.8 °C 29.67 in /  1004.6 hPa WNW 11.4 mph /  18.3 km/h 19.6 mph /  31.5 km/h 42 % 0.00 in /  0 mm
11:16 46.9 °F /  8.3 °C 24.4 °F /  -4.2 °C 29.67 in /  1004.6 hPa West 16.4 mph /  26.4 km/h 25.3 mph /  40.7 km/h 41 % 0.00 in /  0 mm
11:22 46.6 °F /  8.1 °C 24.7 °F /  -4.1 °C 29.68 in /  1005 hPa NW 10.7 mph /  17.2 km/h 18.4 mph /  29.6 km/h 42 % 0.00 in /  0 mm
11:27 46.5 °F /  8.1 °C 24.6 °F /  -4.1 °C 29.68 in /  1005 hPa West 12.0 mph /  19.3 km/h 25.3 mph /  40.7 km/h 42 % 0.00 in /  0 mm
11:32 46.6 °F /  8.1 °C 24.7 °F /  -4.1 °C 29.68 in /  1005 hPa WNW 11.4 mph /  18.3 km/h 20.7 mph /  33.3 km/h 42 % 0.00 in /  0 mm
11:37 46.5 °F /  8.1 °C 24.0 °F /  -4.4 °C 29.68 in /  1005 hPa West 16.9 mph /  27.2 km/h 25.3 mph /  40.7 km/h 41 % 0.00 in /  0 mm
11:42 46.3 °F /  7.9 °C 25.0 °F /  -3.9 °C 29.69 in /  1005.3 hPa WNW 12.6 mph /  20.3 km/h 23.0 mph /  37 km/h 43 % 0.00 in /  0 mm
11:47 46.3 °F /  7.9 °C 25.6 °F /  -3.6 °C 29.69 in /  1005.3 hPa NNW 14.9 mph /  24 km/h 20.7 mph /  33.3 km/h 44 % 0.00 in /  0 mm
11:52 46.4 °F /  8 °C 25.6 °F /  -3.6 °C 29.68 in /  1005 hPa WNW 11.9 mph /  19.2 km/h 18.4 mph /  29.6 km/h 44 % 0.00 in /  0 mm
11:57 46.5 °F /  8.1 °C 26.3 °F /  -3.2 °C 29.69 in /  1005.3 hPa WNW 11.7 mph /  18.8 km/h 19.6 mph /  31.5 km/h 45 % 0.00 in /  0 mm
12:02 46.7 °F /  8.2 °C 26.5 °F /  -3.1 °C 29.69 in /  1005.3 hPa WNW 8.7 mph /  14 km/h 16.0 mph /  25.7 km/h 45 % 0.00 in /  0 mm
12:07 46.8 °F /  8.2 °C 25.5 °F /  -3.6 °C 29.69 in /  1005.3 hPa NW 8.5 mph /  13.7 km/h 20.7 mph /  33.3 km/h 43 % 0.00 in /  0 mm
12:12 46.9 °F /  8.3 °C 26.1 °F /  -3.3 °C 29.70 in /  1005.6 hPa WNW 9.0 mph /  14.5 km/h 17.3 mph /  27.8 km/h 44 % 0.00 in /  0 mm
12:17 47.0 °F /  8.3 °C 26.2 °F /  -3.2 °C 29.70 in /  1005.6 hPa West 9.2 mph /  14.8 km/h 21.9 mph /  35.2 km/h 44 % 0.00 in /  0 mm
12:23 47.1 °F /  8.4 °C 26.3 °F /  -3.2 °C 29.70 in /  1005.6 hPa WNW 11.4 mph /  18.3 km/h 20.7 mph /  33.3 km/h 44 % 0.00 in /  0 mm
12:28 47.1 °F /  8.4 °C 25.7 °F /  -3.5 °C 29.70 in /  1005.6 hPa NW 9.5 mph /  15.3 km/h 26.5 mph /  42.6 km/h 43 % 0.00 in /  0 mm
12:33 47.1 °F /  8.4 °C 25.7 °F /  -3.5 °C 29.70 in /  1005.6 hPa WNW 11.5 mph /  18.5 km/h 23.0 mph /  37 km/h 43 % 0.00 in /  0 mm
12:38 47.0 °F /  8.3 °C 25.1 °F /  -3.8 °C 29.71 in /  1006 hPa NW 6.9 mph /  11.1 km/h 21.9 mph /  35.2 km/h 42 % 0.00 in /  0 mm
12:43 46.7 °F /  8.2 °C 24.8 °F /  -4 °C 29.71 in /  1006 hPa WNW 9.0 mph /  14.5 km/h 17.3 mph /  27.8 km/h 42 % 0.00 in /  0 mm
12:48 46.7 °F /  8.2 °C 25.9 °F /  -3.4 °C 29.71 in /  1006 hPa WSW 9.7 mph /  15.6 km/h 16.1 mph /  25.9 km/h 44 % 0.00 in /  0 mm
12:53 46.7 °F /  8.2 °C 25.4 °F /  -3.7 °C 29.72 in /  1006.3 hPa NW 7.5 mph /  12.1 km/h 19.6 mph /  31.5 km/h 43 % 0.00 in /  0 mm
12:58 46.6 °F /  8.1 °C 25.3 °F /  -3.7 °C 29.72 in /  1006.3 hPa West 11.0 mph /  17.7 km/h 19.6 mph /  31.5 km/h 43 % 0.00 in /  0 mm
13:03 46.4 °F /  8 °C 25.1 °F /  -3.8 °C 29.72 in /  1006.3 hPa WNW 12.0 mph /  19.3 km/h 23.0 mph /  37 km/h 43 % 0.00 in /  0 mm
13:13 46.3 °F /  7.9 °C 24.4 °F /  -4.2 °C 29.72 in /  1006.3 hPa WNW 8.0 mph /  12.9 km/h 21.0 mph /  33.8 km/h 42 % 0.00 in /  0 mm
13:18 46.5 °F /  8.1 °C 25.2 °F /  -3.8 °C 29.72 in /  1006.3 hPa WNW 9.0 mph /  14.5 km/h 21.0 mph /  33.8 km/h 43 % 0.00 in /  0 mm
13:23 46.5 °F /  8.1 °C 24.6 °F /  -4.1 °C 29.72 in /  1006.3 hPa WNW 13.0 mph /  20.9 km/h 26.0 mph /  41.8 km/h 42 % 0.00 in /  0 mm
13:28 46.2 °F /  7.9 °C 25.0 °F /  -3.9 °C 29.72 in /  1006.3 hPa NW 8.0 mph /  12.9 km/h 22.0 mph /  35.4 km/h 43 % 0.00 in /  0 mm
13:33 46.3 °F /  7.9 °C 25.0 °F /  -3.9 °C 29.72 in /  1006.3 hPa WNW 8.0 mph /  12.9 km/h 20.0 mph /  32.2 km/h 43 % 0.00 in /  0 mm
13:38 46.3 °F /  7.9 °C 25.0 °F /  -3.9 °C 29.73 in /  1006.7 hPa WNW 8.2 mph /  13.2 km/h 13.8 mph /  22.2 km/h 43 % 0.00 in /  0 mm
13:43 46.5 °F /  8.1 °C 25.2 °F /  -3.8 °C 29.73 in /  1006.7 hPa WNW 12.0 mph /  19.3 km/h 25.0 mph /  40.2 km/h 43 % 0.00 in /  0 mm
13:48 46.4 °F /  8 °C 25.7 °F /  -3.5 °C 29.74 in /  1007 hPa WNW 9.0 mph /  14.5 km/h 20.0 mph /  32.2 km/h 44 % 0.00 in /  0 mm
13:53 46.4 °F /  8 °C 25.6 °F /  -3.6 °C 29.75 in /  1007.3 hPa WNW 10.0 mph /  16.1 km/h 20.0 mph /  32.2 km/h 44 % 0.00 in /  0 mm
13:58 46.3 °F /  7.9 °C 25.0 °F /  -3.9 °C 29.75 in /  1007.3 hPa WNW 11.3 mph /  18.2 km/h 19.6 mph /  31.5 km/h 43 % 0.00 in /  0 mm
14:03 46.1 °F /  7.8 °C 23.7 °F /  -4.6 °C 29.75 in /  1007.3 hPa NW 13.3 mph /  21.4 km/h 21.9 mph /  35.2 km/h 41 % 0.00 in /  0 mm
14:08 45.8 °F /  7.7 °C 24.0 °F /  -4.4 °C 29.75 in /  1007.3 hPa NW 12.2 mph /  19.6 km/h 19.6 mph /  31.5 km/h 42 % 0.00 in /  0 mm
14:13 45.8 °F /  7.7 °C 24.5 °F /  -4.2 °C 29.75 in /  1007.3 hPa WNW 11.6 mph /  18.7 km/h 20.7 mph /  33.3 km/h 43 % 0.00 in /  0 mm
14:18 45.8 °F /  7.7 °C 24.5 °F /  -4.2 °C 29.76 in /  1007.7 hPa WNW 8.1 mph /  13 km/h 17.3 mph /  27.8 km/h 43 % 0.00 in /  0 mm
14:23 45.8 °F /  7.7 °C 25.1 °F /  -3.8 °C 29.76 in /  1007.7 hPa NNW 6.4 mph /  10.3 km/h 13.8 mph /  22.2 km/h 44 % 0.00 in /  0 mm
14:29 45.8 °F /  7.7 °C 25.6 °F /  -3.6 °C 29.76 in /  1007.7 hPa WNW 8.7 mph /  14 km/h 14.0 mph /  22.5 km/h 45 % 0.00 in /  0 mm
14:34 45.6 °F /  7.6 °C 24.9 °F /  -3.9 °C 29.76 in /  1007.7 hPa WNW 8.7 mph /  14 km/h 21.9 mph /  35.2 km/h 44 % 0.00 in /  0 mm
14:39 45.4 °F /  7.4 °C 24.2 °F /  -4.3 °C 29.76 in /  1007.7 hPa NNW 10.5 mph /  16.9 km/h 17.3 mph /  27.8 km/h 43 % 0.00 in /  0 mm
14:44 45.4 °F /  7.4 °C 24.2 °F /  -4.3 °C 29.77 in /  1008 hPa WNW 14.1 mph /  22.7 km/h 25.0 mph /  40.2 km/h 43 % 0.00 in /  0 mm
14:49 45.1 °F /  7.3 °C 23.9 °F /  -4.5 °C 29.77 in /  1008 hPa WNW 14.1 mph /  22.7 km/h 19.6 mph /  31.5 km/h 43 % 0.00 in /  0 mm
14:54 44.8 °F /  7.1 °C 24.7 °F /  -4.1 °C 29.77 in /  1008 hPa WNW 10.5 mph /  16.9 km/h 16.1 mph /  25.9 km/h 45 % 0.00 in /  0 mm
14:59 44.6 °F /  7 °C 23.5 °F /  -4.7 °C 29.77 in /  1008 hPa NW 5.7 mph /  9.2 km/h 20.7 mph /  33.3 km/h 43 % 0.00 in /  0 mm
15:04 44.4 °F /  6.9 °C 23.3 °F /  -4.8 °C 29.77 in /  1008 hPa WNW 12.3 mph /  19.8 km/h 21.0 mph /  33.8 km/h 43 % 0.00 in /  0 mm
15:09 44.2 °F /  6.8 °C 23.1 °F /  -4.9 °C 29.78 in /  1008.4 hPa WNW 11.7 mph /  18.8 km/h 18.4 mph /  29.6 km/h 43 % 0.00 in /  0 mm
15:14 44.2 °F /  6.8 °C 23.1 °F /  -4.9 °C 29.78 in /  1008.4 hPa WSW 11.9 mph /  19.2 km/h 19.6 mph /  31.5 km/h 43 % 0.00 in /  0 mm
15:19 44.0 °F /  6.7 °C 24.0 °F /  -4.4 °C 29.79 in /  1008.7 hPa NW 10.0 mph /  16.1 km/h 17.3 mph /  27.8 km/h 45 % 0.00 in /  0 mm
15:24 44.0 °F /  6.7 °C 24.0 °F /  -4.4 °C 29.79 in /  1008.7 hPa NNW 9.1 mph /  14.6 km/h 14.0 mph /  22.5 km/h 45 % 0.00 in /  0 mm
15:30 43.8 °F /  6.6 °C 23.3 °F /  -4.8 °C 29.79 in /  1008.7 hPa NW 7.8 mph /  12.6 km/h 12.7 mph /  20.4 km/h 44 % 0.00 in /  0 mm
15:35 43.8 °F /  6.6 °C 23.3 °F /  -4.8 °C 29.80 in /  1009 hPa NW 12.6 mph /  20.3 km/h 23.0 mph /  37 km/h 44 % 0.00 in /  0 mm
15:40 43.8 °F /  6.6 °C 23.8 °F /  -4.6 °C 29.80 in /  1009 hPa WNW 8.9 mph /  14.3 km/h 16.1 mph /  25.9 km/h 45 % 0.00 in /  0 mm
15:45 43.7 °F /  6.5 °C 23.7 °F /  -4.6 °C 29.80 in /  1009 hPa WNW 6.0 mph /  9.7 km/h 16.1 mph /  25.9 km/h 45 % 0.00 in /  0 mm
15:50 43.6 °F /  6.4 °C 22.5 °F /  -5.3 °C 29.81 in /  1009.4 hPa WNW 9.5 mph /  15.3 km/h 18.4 mph /  29.6 km/h 43 % 0.00 in /  0 mm
15:55 43.5 °F /  6.4 °C 23.5 °F /  -4.7 °C 29.81 in /  1009.4 hPa NW 7.6 mph /  12.2 km/h 18.4 mph /  29.6 km/h 45 % 0.00 in /  0 mm
16:00 43.4 °F /  6.3 °C 22.9 °F /  -5.1 °C 29.82 in /  1009.7 hPa NW 6.5 mph /  10.5 km/h 19.6 mph /  31.5 km/h 44 % 0.00 in /  0 mm
16:05 43.2 °F /  6.2 °C 22.2 °F /  -5.4 °C 29.82 in /  1009.7 hPa SW 9.5 mph /  15.3 km/h 15.0 mph /  24.1 km/h 43 % 0.00 in /  0 mm
16:10 43.1 °F /  6.2 °C 22.6 °F /  -5.2 °C 29.82 in /  1009.7 hPa NW 11.9 mph /  19.2 km/h 19.6 mph /  31.5 km/h 44 % 0.00 in /  0 mm
16:15 43.0 °F /  6.1 °C 22.5 °F /  -5.3 °C 29.82 in /  1009.7 hPa NW 5.6 mph /  9 km/h 11.5 mph /  18.5 km/h 44 % 0.00 in /  0 mm
16:20 42.9 °F /  6.1 °C 22.5 °F /  -5.3 °C 29.82 in /  1009.7 hPa WNW 8.2 mph /  13.2 km/h 17.3 mph /  27.8 km/h 44 % 0.00 in /  0 mm
16:26 42.8 °F /  6 °C 22.4 °F /  -5.3 °C 29.83 in /  1010 hPa WNW 7.5 mph /  12.1 km/h 15.0 mph /  24.1 km/h 44 % 0.00 in /  0 mm
16:31 42.7 °F /  5.9 °C 21.7 °F /  -5.7 °C 29.83 in /  1010 hPa NW 10.8 mph /  17.4 km/h 16.1 mph /  25.9 km/h 43 % 0.00 in /  0 mm
16:36 42.6 °F /  5.9 °C 22.7 °F /  -5.2 °C 29.83 in /  1010 hPa West 10.5 mph /  16.9 km/h 18.4 mph /  29.6 km/h 45 % 0.00 in /  0 mm
16:41 42.5 °F /  5.8 °C 23.2 °F /  -4.9 °C 29.84 in /  1010.4 hPa NW 7.6 mph /  12.2 km/h 11.5 mph /  18.5 km/h 46 % 0.00 in /  0 mm
16:46 42.4 °F /  5.8 °C 23.1 °F /  -4.9 °C 29.84 in /  1010.4 hPa WNW 10.6 mph /  17.1 km/h 19.6 mph /  31.5 km/h 46 % 0.00 in /  0 mm
16:51 42.3 °F /  5.7 °C 22.4 °F /  -5.3 °C 29.85 in /  1010.7 hPa NW 7.9 mph /  12.7 km/h 17.3 mph /  27.8 km/h 45 % 0.00 in /  0 mm
16:56 42.2 °F /  5.7 °C 22.4 °F /  -5.3 °C 29.84 in /  1010.4 hPa WNW 7.8 mph /  12.6 km/h 15.0 mph /  24.1 km/h 45 % 0.00 in /  0 mm
17:01 42.1 °F /  5.6 °C 23.3 °F /  -4.8 °C 29.85 in /  1010.7 hPa NW 7.4 mph /  11.9 km/h 17.0 mph /  27.4 km/h 47 % 0.00 in /  0 mm
17:06 42.0 °F /  5.6 °C 22.7 °F /  -5.2 °C 29.86 in /  1011.1 hPa West 9.5 mph /  15.3 km/h 17.3 mph /  27.8 km/h 46 % 0.00 in /  0 mm
17:11 41.9 °F /  5.5 °C 23.1 °F /  -4.9 °C 29.86 in /  1011.1 hPa WNW 9.7 mph /  15.6 km/h 17.3 mph /  27.8 km/h 47 % 0.00 in /  0 mm
17:16 41.7 °F /  5.4 °C 21.4 °F /  -5.9 °C 29.86 in /  1011.1 hPa NW 9.6 mph /  15.4 km/h 13.0 mph /  20.9 km/h 44 % 0.00 in /  0 mm
17:21 41.6 °F /  5.3 °C 20.7 °F /  -6.3 °C 29.86 in /  1011.1 hPa West 10.3 mph /  16.6 km/h 19.6 mph /  31.5 km/h 43 % 0.00 in /  0 mm
17:27 41.5 °F /  5.3 °C 21.7 °F /  -5.7 °C 29.87 in /  1011.4 hPa WSW 8.1 mph /  13 km/h 13.8 mph /  22.2 km/h 45 % 0.00 in /  0 mm
17:32 41.4 °F /  5.2 °C 21.1 °F /  -6.1 °C 29.87 in /  1011.4 hPa WNW 9.6 mph /  15.4 km/h 18.4 mph /  29.6 km/h 44 % 0.00 in /  0 mm
17:37 41.4 °F /  5.2 °C 21.6 °F /  -5.8 °C 29.88 in /  1011.7 hPa WNW 8.5 mph /  13.7 km/h 18.4 mph /  29.6 km/h 45 % 0.00 in /  0 mm
17:42 41.3 °F /  5.2 °C 21.0 °F /  -6.1 °C 29.88 in /  1011.7 hPa NW 9.2 mph /  14.8 km/h 14.0 mph /  22.5 km/h 44 % 0.00 in /  0 mm
17:47 41.2 °F /  5.1 °C 19.8 °F /  -6.8 °C 29.89 in /  1012.1 hPa NW 8.6 mph /  13.8 km/h 13.8 mph /  22.2 km/h 42 % 0.00 in /  0 mm
17:52 41.1 °F /  5.1 °C 20.3 °F /  -6.5 °C 29.89 in /  1012.1 hPa NW 8.0 mph /  12.9 km/h 18.4 mph /  29.6 km/h 43 % 0.00 in /  0 mm
17:57 41.0 °F /  5 °C 19.1 °F /  -7.2 °C 29.90 in /  1012.4 hPa NW 10.9 mph /  17.5 km/h 19.6 mph /  31.5 km/h 41 % 0.00 in /  0 mm
18:02 41.0 °F /  5 °C 19.1 °F /  -7.2 °C 29.89 in /  1012.1 hPa NW 7.8 mph /  12.6 km/h 16.1 mph /  25.9 km/h 41 % 0.00 in /  0 mm
18:07 41.0 °F /  5 °C 19.6 °F /  -6.9 °C 29.90 in /  1012.4 hPa WNW 10.6 mph /  17.1 km/h 20.0 mph /  32.2 km/h 42 % 0.00 in /  0 mm
18:12 40.9 °F /  4.9 °C 19.5 °F /  -6.9 °C 29.90 in /  1012.4 hPa NW 8.1 mph /  13 km/h 13.8 mph /  22.2 km/h 42 % 0.00 in /  0 mm
18:17 40.9 °F /  4.9 °C 19.5 °F /  -6.9 °C 29.90 in /  1012.4 hPa North 5.8 mph /  9.3 km/h 11.5 mph /  18.5 km/h 42 % 0.00 in /  0 mm
18:22 40.8 °F /  4.9 °C 20.0 °F /  -6.7 °C 29.90 in /  1012.4 hPa NW 7.3 mph /  11.7 km/h 13.8 mph /  22.2 km/h 43 % 0.00 in /  0 mm
18:27 40.7 °F /  4.8 °C 19.9 °F /  -6.7 °C 29.91 in /  1012.8 hPa NW 7.1 mph /  11.4 km/h 10.4 mph /  16.7 km/h 43 % 0.00 in /  0 mm
18:33 40.7 °F /  4.8 °C 20.5 °F /  -6.4 °C 29.92 in /  1013.1 hPa NNW 8.8 mph /  14.2 km/h 11.5 mph /  18.5 km/h 44 % 0.00 in /  0 mm
18:38 40.6 °F /  4.8 °C 19.8 °F /  -6.8 °C 29.92 in /  1013.1 hPa NW 7.8 mph /  12.6 km/h 15.0 mph /  24.1 km/h 43 % 0.00 in /  0 mm
18:43 40.6 °F /  4.8 °C 19.8 °F /  -6.8 °C 29.92 in /  1013.1 hPa West 5.4 mph /  8.7 km/h 11.5 mph /  18.5 km/h 43 % 0.00 in /  0 mm
18:48 40.6 °F /  4.8 °C 19.8 °F /  -6.8 °C 29.92 in /  1013.1 hPa West 5.1 mph /  8.2 km/h 11.5 mph /  18.5 km/h 43 % 0.00 in /  0 mm
18:53 40.5 °F /  4.7 °C 19.7 °F /  -6.8 °C 29.93 in /  1013.4 hPa West 6.4 mph /  10.3 km/h 16.1 mph /  25.9 km/h 43 % 0.00 in /  0 mm
18:58 40.5 °F /  4.7 °C 19.7 °F /  -6.8 °C 29.93 in /  1013.4 hPa West 7.6 mph /  12.2 km/h 11.5 mph /  18.5 km/h 43 % 0.00 in /  0 mm
19:03 40.5 °F /  4.7 °C 19.7 °F /  -6.8 °C 29.94 in /  1013.8 hPa WNW 5.0 mph /  8 km/h 17.0 mph /  27.4 km/h 43 % 0.00 in /  0 mm
19:08 40.4 °F /  4.7 °C 20.2 °F /  -6.6 °C 29.94 in /  1013.8 hPa WNW 5.0 mph /  8 km/h 12.0 mph /  19.3 km/h 44 % 0.00 in /  0 mm
19:13 40.4 °F /  4.7 °C 20.2 °F /  -6.6 °C 29.94 in /  1013.8 hPa WNW 6.0 mph /  9.7 km/h 13.0 mph /  20.9 km/h 44 % 0.00 in /  0 mm
19:18 40.3 °F /  4.6 °C 19.5 °F /  -6.9 °C 29.94 in /  1013.8 hPa WNW 5.0 mph /  8 km/h 18.0 mph /  29 km/h 43 % 0.00 in /  0 mm
19:23 40.2 °F /  4.6 °C 19.5 °F /  -6.9 °C 29.95 in /  1014.1 hPa WNW 5.0 mph /  8 km/h 15.0 mph /  24.1 km/h 43 % 0.00 in /  0 mm
19:28 40.2 °F /  4.6 °C 18.9 °F /  -7.3 °C 29.95 in /  1014.1 hPa WNW 7.0 mph /  11.3 km/h 14.0 mph /  22.5 km/h 42 % 0.00 in /  0 mm
19:33 40.2 °F /  4.6 °C 18.9 °F /  -7.3 °C 29.95 in /  1014.1 hPa WNW 5.0 mph /  8 km/h 13.0 mph /  20.9 km/h 42 % 0.00 in /  0 mm
19:38 40.1 °F /  4.5 °C 18.8 °F /  -7.3 °C 29.96 in /  1014.4 hPa WNW 5.0 mph /  8 km/h 16.0 mph /  25.7 km/h 42 % 0.00 in /  0 mm
19:43 40.1 °F /  4.5 °C 18.3 °F /  -7.6 °C 29.96 in /  1014.4 hPa WNW 8.9 mph /  14.3 km/h 13.8 mph /  22.2 km/h 41 % 0.00 in /  0 mm
19:48 40.0 °F /  4.4 °C 18.7 °F /  -7.4 °C 29.96 in /  1014.4 hPa West 8.0 mph /  12.9 km/h 14.0 mph /  22.5 km/h 42 % 0.00 in /  0 mm
19:53 40.0 °F /  4.4 °C 19.3 °F /  -7.1 °C 29.97 in /  1014.8 hPa WNW 3.8 mph /  6.1 km/h 9.2 mph /  14.8 km/h 43 % 0.00 in /  0 mm
19:58 39.9 °F /  4.4 °C 18.6 °F /  -7.4 °C 29.97 in /  1014.8 hPa WNW 9.4 mph /  15.1 km/h 11.5 mph /  18.5 km/h 42 % 0.00 in /  0 mm
20:03 39.8 °F /  4.3 °C 18.5 °F /  -7.5 °C 29.97 in /  1014.8 hPa WNW 5.2 mph /  8.4 km/h 9.2 mph /  14.8 km/h 42 % 0.00 in /  0 mm
20:08 39.7 °F /  4.3 °C 18.5 °F /  -7.5 °C 29.97 in /  1014.8 hPa West 10.8 mph /  17.4 km/h 17.3 mph /  27.8 km/h 42 % 0.00 in /  0 mm
20:13 39.7 °F /  4.3 °C 19.0 °F /  -7.2 °C 29.97 in /  1014.8 hPa West 6.3 mph /  10.1 km/h 9.0 mph /  14.5 km/h 43 % 0.00 in /  0 mm
20:18 39.6 °F /  4.2 °C 18.9 °F /  -7.3 °C 29.97 in /  1014.8 hPa WNW 6.1 mph /  9.8 km/h 10.4 mph /  16.7 km/h 43 % 0.00 in /  0 mm
20:23 39.5 °F /  4.2 °C 19.4 °F /  -7 °C 29.98 in /  1015.1 hPa WNW 6.3 mph /  10.1 km/h 11.5 mph /  18.5 km/h 44 % 0.00 in /  0 mm
20:28 39.5 °F /  4.2 °C 19.4 °F /  -7 °C 29.98 in /  1015.1 hPa SW 5.3 mph /  8.5 km/h 9.2 mph /  14.8 km/h 44 % 0.00 in /  0 mm
20:33 39.4 °F /  4.1 °C 18.7 °F /  -7.4 °C 29.98 in /  1015.1 hPa WSW 6.7 mph /  10.8 km/h 11.5 mph /  18.5 km/h 43 % 0.00 in /  0 mm
20:38 39.3 °F /  4.1 °C 19.2 °F /  -7.1 °C 29.99 in /  1015.5 hPa WSW 7.0 mph /  11.3 km/h 12.7 mph /  20.4 km/h 44 % 0.00 in /  0 mm
20:43 39.3 °F /  4.1 °C 18.1 °F /  -7.7 °C 29.99 in /  1015.5 hPa West 8.5 mph /  13.7 km/h 16.1 mph /  25.9 km/h 42 % 0.00 in /  0 mm
20:48 39.3 °F /  4.1 °C 18.6 °F /  -7.4 °C 29.99 in /  1015.5 hPa NNW 6.3 mph /  10.1 km/h 12.7 mph /  20.4 km/h 43 % 0.00 in /  0 mm
20:53 39.2 °F /  4 °C 19.1 °F /  -7.2 °C 29.99 in /  1015.5 hPa NW 4.5 mph /  7.2 km/h 10.0 mph /  16.1 km/h 44 % 0.00 in /  0 mm
20:59 39.1 °F /  3.9 °C 17.9 °F /  -7.8 °C 29.99 in /  1015.5 hPa NNW 8.8 mph /  14.2 km/h 19.6 mph /  31.5 km/h 42 % 0.00 in /  0 mm
21:04 39.1 °F /  3.9 °C 19.0 °F /  -7.2 °C 30.00 in /  1015.8 hPa West 8.1 mph /  13 km/h 13.0 mph /  20.9 km/h 44 % 0.00 in /  0 mm
21:09 39.0 °F /  3.9 °C 18.4 °F /  -7.6 °C 30.00 in /  1015.8 hPa NNW 7.4 mph /  11.9 km/h 13.8 mph /  22.2 km/h 43 % 0.00 in /  0 mm
21:14 38.9 °F /  3.8 °C 17.7 °F /  -7.9 °C 30.00 in /  1015.8 hPa NW 7.1 mph /  11.4 km/h 16.1 mph /  25.9 km/h 42 % 0.00 in /  0 mm
21:19 38.8 °F /  3.8 °C 17.6 °F /  -8 °C 30.01 in /  1016.1 hPa NW 10.3 mph /  16.6 km/h 17.3 mph /  27.8 km/h 42 % 0.00 in /  0 mm
21:24 38.7 °F /  3.7 °C 18.1 °F /  -7.7 °C 30.01 in /  1016.1 hPa WNW 8.3 mph /  13.4 km/h 15.0 mph /  24.1 km/h 43 % 0.00 in /  0 mm
21:29 38.6 °F /  3.7 °C 18.5 °F /  -7.5 °C 30.01 in /  1016.1 hPa WNW 6.8 mph /  10.9 km/h 12.7 mph /  20.4 km/h 44 % 0.00 in /  0 mm
21:34 38.6 °F /  3.7 °C 19.6 °F /  -6.9 °C 30.01 in /  1016.1 hPa West 5.1 mph /  8.2 km/h 10.4 mph /  16.7 km/h 46 % 0.00 in /  0 mm
21:39 38.4 °F /  3.6 °C 18.4 °F /  -7.6 °C 30.01 in /  1016.1 hPa NW 4.4 mph /  7.1 km/h 8.1 mph /  13 km/h 44 % 0.00 in /  0 mm
21:44 38.3 °F /  3.5 °C 18.3 °F /  -7.6 °C 30.01 in /  1016.1 hPa SW 5.3 mph /  8.5 km/h 11.5 mph /  18.5 km/h 44 % 0.00 in /  0 mm
21:49 38.2 °F /  3.4 °C 17.6 °F /  -8 °C 30.01 in /  1016.1 hPa NW 9.8 mph /  15.8 km/h 17.3 mph /  27.8 km/h 43 % 0.00 in /  0 mm
21:54 38.1 °F /  3.4 °C 17.0 °F /  -8.3 °C 30.02 in /  1016.5 hPa WNW 4.8 mph /  7.7 km/h 10.0 mph /  16.1 km/h 42 % 0.00 in /  0 mm
22:00 37.9 °F /  3.3 °C 17.9 °F /  -7.8 °C 30.02 in /  1016.5 hPa WNW 6.6 mph /  10.6 km/h 11.5 mph /  18.5 km/h 44 % 0.00 in /  0 mm
22:05 37.9 °F /  3.3 °C 18.9 °F /  -7.3 °C 30.02 in /  1016.5 hPa WNW 3.6 mph /  5.8 km/h 10.4 mph /  16.7 km/h 46 % 0.00 in /  0 mm
22:10 37.8 °F /  3.2 °C 19.8 °F /  -6.8 °C 30.03 in /  1016.8 hPa NW 5.8 mph /  9.3 km/h 11.5 mph /  18.5 km/h 48 % 0.00 in /  0 mm
22:15 37.7 °F /  3.2 °C 19.8 °F /  -6.8 °C 30.03 in /  1016.8 hPa NW 6.1 mph /  9.8 km/h 11.5 mph /  18.5 km/h 48 % 0.00 in /  0 mm
22:20 37.6 °F /  3.1 °C 19.2 °F /  -7.1 °C 30.03 in /  1016.8 hPa NW 10.6 mph /  17.1 km/h 18.4 mph /  29.6 km/h 47 % 0.00 in /  0 mm
22:25 37.5 °F /  3.1 °C 18.1 °F /  -7.7 °C 30.03 in /  1016.8 hPa North 6.2 mph /  10 km/h 15.0 mph /  24.1 km/h 45 % 0.00 in /  0 mm
22:27 37.4 °F /  3 °C 18.5 °F /  -7.5 °C 30.03 in /  1016.8 hPa NW 6.1 mph /  9.8 km/h 10.4 mph /  16.7 km/h 46 % 0.00 in /  0 mm
22:32 37.3 °F /  2.9 °C 17.9 °F /  -7.8 °C 30.03 in /  1016.8 hPa NW 4.3 mph /  6.9 km/h 8.1 mph /  13 km/h 45 % 0.00 in /  0 mm
22:37 37.2 °F /  2.9 °C 17.8 °F /  -7.9 °C 30.04 in /  1017.2 hPa West 9.5 mph /  15.3 km/h 15.0 mph /  24.1 km/h 45 % 0.00 in /  0 mm
22:43 37.1 °F /  2.8 °C 17.2 °F /  -8.2 °C 30.03 in /  1016.8 hPa WNW 4.4 mph /  7.1 km/h 10.4 mph /  16.7 km/h 44 % 0.00 in /  0 mm
22:48 37.1 °F /  2.8 °C 17.7 °F /  -7.9 °C 30.04 in /  1017.2 hPa SW 9.0 mph /  14.5 km/h 16.1 mph /  25.9 km/h 45 % 0.00 in /  0 mm
22:53 37.0 °F /  2.8 °C 17.6 °F /  -8 °C 30.04 in /  1017.2 hPa WSW 8.5 mph /  13.7 km/h 11.5 mph /  18.5 km/h 45 % 0.00 in /  0 mm
22:58 36.9 °F /  2.7 °C 17.0 °F /  -8.3 °C 30.04 in /  1017.2 hPa NNW 8.3 mph /  13.4 km/h 11.5 mph /  18.5 km/h 44 % 0.00 in /  0 mm
23:03 36.8 °F /  2.7 °C 17.9 °F /  -7.8 °C 30.04 in /  1017.2 hPa NW 4.2 mph /  6.8 km/h 8.1 mph /  13 km/h 46 % 0.00 in /  0 mm
23:08 36.7 °F /  2.6 °C 17.8 °F /  -7.9 °C 30.04 in /  1017.2 hPa NW 5.1 mph /  8.2 km/h 11.5 mph /  18.5 km/h 46 % 0.00 in /  0 mm
23:13 36.5 °F /  2.5 °C 17.1 °F /  -8.3 °C 30.04 in /  1017.2 hPa West 7.7 mph /  12.4 km/h 11.5 mph /  18.5 km/h 45 % 0.00 in /  0 mm
23:18 36.5 °F /  2.5 °C 17.1 °F /  -8.3 °C 30.05 in /  1017.5 hPa WNW 7.4 mph /  11.9 km/h 12.7 mph /  20.4 km/h 45 % 0.00 in /  0 mm
23:23 36.4 °F /  2.4 °C 17.1 °F /  -8.3 °C 30.05 in /  1017.5 hPa NW 5.1 mph /  8.2 km/h 10.4 mph /  16.7 km/h 45 % 0.00 in /  0 mm
23:28 36.3 °F /  2.4 °C 17.0 °F /  -8.3 °C 30.05 in /  1017.5 hPa West 2.9 mph /  4.7 km/h 13.8 mph /  22.2 km/h 45 % 0.00 in /  0 mm
23:33 36.2 °F /  2.3 °C 17.4 °F /  -8.1 °C 30.05 in /  1017.5 hPa NW 5.9 mph /  9.5 km/h 8.1 mph /  13 km/h 46 % 0.00 in /  0 mm
23:38 36.1 °F /  2.3 °C 17.3 °F /  -8.2 °C 30.05 in /  1017.5 hPa WNW 6.6 mph /  10.6 km/h 17.3 mph /  27.8 km/h 46 % 0.00 in /  0 mm
23:43 36.0 °F /  2.2 °C 17.2 °F /  -8.2 °C 30.05 in /  1017.5 hPa WNW 9.0 mph /  14.5 km/h 20.0 mph /  32.2 km/h 46 % 0.00 in /  0 mm
23:48 35.8 °F /  2.1 °C 17.5 °F /  -8.1 °C 30.05 in /  1017.5 hPa NW 4.3 mph /  6.9 km/h 15.0 mph /  24.1 km/h 47 % 0.00 in /  0 mm
23:58 35.7 °F /  2.1 °C 17.4 °F /  -8.1 °C 30.05 in /  1017.5 hPa WNW 5.7 mph /  9.2 km/h 16.1 mph /  25.9 km/h 47 % 0.00 in /  0 mm
Crab Meadow Weather
Compliments of Weather Underground - 3 mb

Script developed by  Jim McMurry - jmcmurry@mwt.net Adapted for the template by  Wim van der Kuil - Leuven-Template.eu

Weather Terms: Heat Advisory - Maximum heat index of 105 to 110°F with a minimum of 75°F for two or more consecutive days.